Time;durP1;ratioP1;P1;durP2;ratioP2;P2;SDS_P1;SDS_P2;PMS_P1;PMS_P2;Temp;Humidity;BMP_temperature;BMP_pressure;BME280_temperature;BME280_humidity;BME280_pressure;Samples;Min_cycle;Max_cycle;Signal;HPM_P1;HPM_P2
2023/03/19 00:01:54;;;;;;;5.40;2.97;;;11.90;99.90;;;;;;5056585;28;20478;-77
2023/03/19 00:04:21;;;;;;;3.57;2.80;;;12.00;99.90;;;;;;5053453;28;20469;-76
2023/03/19 00:06:47;;;;;;;3.00;2.80;;;12.00;99.90;;;;;;5059305;28;20499;-77
2023/03/19 00:09:13;;;;;;;4.30;3.47;;;12.00;99.90;;;;;;5055906;28;20416;-77
2023/03/19 00:11:38;;;;;;;4.40;3.03;;;12.10;99.90;;;;;;5053887;28;20178;-77
2023/03/19 00:14:05;;;;;;;5.43;2.57;;;12.10;99.90;;;;;;5050107;28;20225;-77
2023/03/19 00:16:31;;;;;;;5.37;2.87;;;12.10;99.90;;;;;;5051085;28;20174;-76
2023/03/19 00:18:57;;;;;;;3.87;3.10;;;12.10;99.90;;;;;;5049290;28;20419;-77
2023/03/19 00:21:22;;;;;;;4.30;3.10;;;12.10;99.90;;;;;;5050507;28;20456;-77
2023/03/19 00:23:48;;;;;;;4.93;3.20;;;12.20;99.90;;;;;;5050314;28;20193;-76
2023/03/19 00:26:14;;;;;;;4.80;2.70;;;12.10;99.90;;;;;;5050758;28;20177;-76
2023/03/19 00:28:40;;;;;;;7.53;3.50;;;12.10;99.90;;;;;;5049137;28;20657;-77
2023/03/19 00:31:11;;;;;;;7.00;3.13;;;12.20;99.90;;;;;;5050348;28;20212;-77
2023/03/19 00:33:37;;;;;;;5.40;2.70;;;12.20;99.90;;;;;;5050316;28;20440;-77
2023/03/19 00:36:04;;;;;;;3.67;3.10;;;12.10;99.90;;;;;;5050670;28;20419;-77
2023/03/19 00:38:31;;;;;;;5.93;3.20;;;12.10;99.90;;;;;;5048758;28;20828;-77
2023/03/19 00:40:57;;;;;;;5.57;3.20;;;12.00;99.90;;;;;;5050536;28;20800;-77
2023/03/19 00:43:23;;;;;;;8.03;3.70;;;12.00;99.90;;;;;;5049640;28;20491;-77
2023/03/19 00:45:49;;;;;;;5.03;3.63;;;12.00;99.90;;;;;;5050010;28;20975;-77
2023/03/19 00:48:16;;;;;;;4.47;3.00;;;11.90;99.90;;;;;;5048820;28;20404;-77
2023/03/19 00:50:41;;;;;;;5.40;3.30;;;12.00;99.90;;;;;;5049660;28;20817;-77
2023/03/19 00:53:07;;;;;;;4.20;3.10;;;11.90;99.90;;;;;;5049526;28;20459;-77
2023/03/19 00:55:32;;;;;;;3.57;3.00;;;11.90;99.90;;;;;;5047788;28;20223;-77
2023/03/19 00:57:58;;;;;;;4.93;2.90;;;11.90;99.90;;;;;;5049504;28;20277;-77
2023/03/19 01:00:24;;;;;;;5.10;2.90;;;11.90;99.90;;;;;;5049538;28;20783;-77
2023/03/19 01:02:49;;;;;;;4.07;3.10;;;11.80;99.90;;;;;;5049474;28;20768;-77
2023/03/19 01:05:15;;;;;;;6.33;3.70;;;11.80;99.90;;;;;;5049268;28;20577;-77
2023/03/19 01:07:41;;;;;;;4.77;2.67;;;11.80;99.90;;;;;;5049421;28;20182;-77
2023/03/19 01:10:08;;;;;;;4.03;2.83;;;11.80;99.90;;;;;;5049379;28;20474;-77
2023/03/19 01:12:34;;;;;;;3.53;3.10;;;11.70;99.90;;;;;;5049490;28;20662;-77
2023/03/19 01:15:00;;;;;;;2.77;2.57;;;11.60;99.90;;;;;;5049151;28;20478;-77
2023/03/19 01:17:26;;;;;;;5.70;3.20;;;11.70;99.90;;;;;;5049273;28;20412;-77
2023/03/19 01:19:52;;;;;;;2.50;2.30;;;11.80;99.90;;;;;;5047849;28;20839;-77
2023/03/19 01:22:17;;;;;;;4.43;2.80;;;11.80;99.90;;;;;;5049421;28;20184;-77
2023/03/19 01:24:43;;;;;;;3.77;2.67;;;11.80;99.90;;;;;;5047685;28;20198;-77
2023/03/19 01:27:09;;;;;;;3.03;2.60;;;11.70;99.90;;;;;;5049008;28;20174;-77
2023/03/19 01:29:35;;;;;;;4.03;3.10;;;11.60;99.90;;;;;;5047750;28;20182;-77
2023/03/19 01:32:01;;;;;;;4.23;3.23;;;11.60;99.90;;;;;;5049398;28;20405;-77
2023/03/19 01:34:26;;;;;;;3.33;2.60;;;11.50;99.90;;;;;;5048091;28;20432;-77
2023/03/19 01:36:52;;;;;;;4.53;3.13;;;11.50;99.90;;;;;;5047655;28;20173;-77
2023/03/19 01:39:18;;;;;;;5.87;3.60;;;11.40;99.90;;;;;;5047690;28;20174;-77
2023/03/19 01:41:44;;;;;;;5.87;3.27;;;11.40;99.90;;;;;;5048815;28;20271;-77
2023/03/19 01:44:24;;;;;;;4.77;3.27;;;11.50;99.90;;;;;;5047914;28;20581;-77
2023/03/19 01:46:50;;;;;;;3.53;2.97;;;11.50;99.90;;;;;;5047186;28;20404;-77
2023/03/19 01:49:18;;;;;;;3.87;3.07;;;11.50;99.90;;;;;;5048970;28;20435;-77
2023/03/19 01:51:46;;;;;;;4.50;3.47;;;11.40;99.90;;;;;;5048780;28;20412;-77
2023/03/19 01:54:19;;;;;;;5.60;3.17;;;11.40;99.90;;;;;;5047379;28;20953;-76
2023/03/19 01:56:50;;;;;;;3.93;3.27;;;11.30;99.90;;;;;;5048677;28;20413;-77
2023/03/19 01:59:24;;;;;;;5.03;3.20;;;11.20;99.90;;;;;;5048713;28;20888;-77
2023/03/19 02:01:56;;;;;;;4.60;3.80;;;11.20;99.90;;;;;;5048788;28;20569;-77
2023/03/19 02:04:24;;;;;;;4.73;4.23;;;11.20;99.90;;;;;;5048488;28;20586;-77
2023/03/19 02:06:50;;;;;;;4.10;3.70;;;11.30;99.90;;;;;;5047322;28;20409;-77
2023/03/19 02:09:17;;;;;;;3.70;2.90;;;11.40;99.90;;;;;;5047511;28;20629;-77
2023/03/19 02:11:44;;;;;;;4.40;3.40;;;11.30;99.90;;;;;;5048861;28;20465;-77
2023/03/19 02:14:12;;;;;;;6.10;3.67;;;11.30;99.90;;;;;;5048226;28;20448;-77
2023/03/19 02:16:37;;;;;;;5.53;3.40;;;11.40;99.90;;;;;;5048519;28;20428;-77
2023/03/19 02:19:08;;;;;;;4.13;3.17;;;11.30;99.90;;;;;;5048322;28;20420;-77
2023/03/19 02:21:34;;;;;;;5.80;3.50;;;11.30;99.90;;;;;;5048478;28;20209;-77
2023/03/19 02:24:16;;;;;;;4.10;3.20;;;11.40;99.90;;;;;;5048267;28;20810;-77
2023/03/19 02:26:42;;;;;;;3.30;3.00;;;11.40;99.90;;;;;;5047623;28;20245;-77
2023/03/19 02:29:08;;;;;;;4.20;3.30;;;11.40;99.90;;;;;;5048239;28;20400;-77
2023/03/19 02:31:35;;;;;;;4.80;3.00;;;11.40;99.90;;;;;;5048390;28;20499;-77
2023/03/19 02:34:25;;;;;;;4.33;2.97;;;11.40;99.90;;;;;;5044528;28;20436;-77
2023/03/19 02:36:59;;;;;;;5.60;3.60;;;11.40;99.90;;;;;;5044165;28;20957;-77
2023/03/19 02:40:22;;;;;;;4.10;3.53;;;11.30;99.90;;;;;;5063521;28;20426;-77
2023/03/19 02:42:48;;;;;;;5.17;3.27;;;11.30;99.90;;;;;;5012214;28;20448;-77
2023/03/19 02:45:14;;;;;;;3.73;3.03;;;11.30;99.90;;;;;;5036485;28;20881;-77
2023/03/19 02:47:40;;;;;;;4.03;3.63;;;11.30;99.90;;;;;;5030576;28;20201;-77
2023/03/19 02:50:07;;;;;;;3.77;3.37;;;11.20;99.90;;;;;;5048189;28;20404;-77
2023/03/19 02:52:33;;;;;;;5.67;3.37;;;11.20;99.90;;;;;;5048408;28;20819;-76
2023/03/19 02:54:59;;;;;;;4.43;3.70;;;11.20;99.90;;;;;;5047998;28;20493;-77
2023/03/19 02:57:25;;;;;;;5.40;3.40;;;11.20;99.90;;;;;;5047990;28;20174;-77
2023/03/19 02:59:50;;;;;;;3.90;3.40;;;11.20;99.90;;;;;;5048137;28;20604;-77
2023/03/19 03:02:16;;;;;;;6.70;3.80;;;11.20;99.90;;;;;;5048379;28;20416;-77
2023/03/19 03:04:42;;;;;;;4.77;3.40;;;11.20;99.90;;;;;;5047785;28;20324;-77
2023/03/19 03:07:08;;;;;;;4.07;3.43;;;11.20;99.90;;;;;;5047958;28;20483;-77
2023/03/19 03:09:34;;;;;;;4.20;3.03;;;11.20;99.90;;;;;;5048283;28;20419;-77
2023/03/19 03:12:00;;;;;;;5.27;2.60;;;11.10;99.90;;;;;;5051270;28;20546;-76
2023/03/19 03:14:25;;;;;;;6.93;3.80;;;11.20;99.90;;;;;;5051408;28;20820;-77
2023/03/19 03:16:51;;;;;;;3.10;2.90;;;11.10;99.90;;;;;;5051314;28;20228;-77
2023/03/19 03:19:18;;;;;;;5.43;2.93;;;11.20;99.90;;;;;;5051576;28;20174;-76
2023/03/19 03:21:43;;;;;;;4.37;2.90;;;11.20;99.90;;;;;;5050233;28;20236;-77
2023/03/19 03:24:09;;;;;;;3.97;2.80;;;11.30;99.90;;;;;;5051120;28;20436;-77
2023/03/19 03:26:37;;;;;;;4.63;3.03;;;11.30;99.90;;;;;;5050255;28;20181;-77
2023/03/19 03:29:04;;;;;;;4.43;3.10;;;11.30;99.90;;;;;;5051198;28;20423;-77
2023/03/19 03:31:30;;;;;;;4.20;2.93;;;11.30;99.90;;;;;;5051232;28;20409;-77
2023/03/19 03:33:56;;;;;;;5.33;2.53;;;11.30;99.90;;;;;;5050936;28;20431;-77
2023/03/19 03:36:22;;;;;;;3.33;2.90;;;11.30;99.90;;;;;;5051535;28;20416;-77
2023/03/19 03:38:47;;;;;;;4.00;2.83;;;11.40;99.90;;;;;;5042980;28;20177;-77
2023/03/19 03:41:13;;;;;;;3.10;2.80;;;11.40;99.90;;;;;;5071018;28;20538;-77
2023/03/19 03:43:39;;;;;;;4.27;3.00;;;11.40;99.90;;;;;;5070774;28;20586;-77
2023/03/19 03:46:07;;;;;;;2.87;2.57;;;11.40;99.90;;;;;;5071368;28;20203;-77
2023/03/19 03:48:33;;;;;;;3.10;2.63;;;11.40;99.90;;;;;;5069446;28;20756;-77
2023/03/19 03:50:59;;;;;;;4.23;3.00;;;11.40;99.90;;;;;;5070920;28;20473;-77
2023/03/19 03:53:25;;;;;;;7.57;3.20;;;11.40;99.90;;;;;;5069334;28;20962;-77
2023/03/19 03:55:51;;;;;;;7.40;2.93;;;11.40;99.90;;;;;;5071172;28;20535;-77
2023/03/19 03:58:17;;;;;;;3.10;2.77;;;11.40;99.90;;;;;;5070652;28;20419;-77
2023/03/19 04:00:43;;;;;;;7.90;3.27;;;11.40;99.90;;;;;;5070605;28;20558;-77
2023/03/19 04:03:09;;;;;;;3.17;2.87;;;11.50;99.90;;;;;;5070488;28;20209;-77
2023/03/19 04:05:36;;;;;;;2.90;2.63;;;11.50;99.90;;;;;;5070935;28;20908;-77
2023/03/19 04:08:02;;;;;;;4.00;2.93;;;11.50;99.90;;;;;;5070592;28;20411;-77
2023/03/19 04:10:28;;;;;;;5.10;2.47;;;11.50;99.90;;;;;;5070576;28;20412;-77
2023/03/19 04:12:54;;;;;;;4.07;2.53;;;11.50;99.90;;;;;;5070336;28;20451;-76
2023/03/19 04:15:20;;;;;;;4.37;2.57;;;11.60;99.90;;;;;;5053169;28;20428;-77
2023/03/19 04:17:46;;;;;;;4.30;2.90;;;11.60;99.90;;;;;;5050149;28;20178;-77
2023/03/19 04:20:12;;;;;;;5.67;2.67;;;11.60;99.90;;;;;;5048904;28;20444;-77
2023/03/19 04:22:38;;;;;;;4.20;2.40;;;11.60;99.90;;;;;;5049529;28;20654;-77
2023/03/19 04:25:07;;;;;;;3.20;2.57;;;11.60;99.90;;;;;;5050179;28;20411;-77
2023/03/19 04:27:33;;;;;;;4.77;2.50;;;11.60;99.90;;;;;;5049083;28;20178;-77
2023/03/19 04:29:59;;;;;;;2.30;2.00;;;11.50;99.90;;;;;;5050122;28;20435;-77
2023/03/19 04:32:25;;;;;;;2.77;2.57;;;11.60;99.90;;;;;;5049114;28;20416;-77
2023/03/19 04:34:51;;;;;;;3.13;2.70;;;11.50;99.90;;;;;;5049949;28;20448;-77
2023/03/19 04:37:17;;;;;;;2.27;2.07;;;11.50;99.90;;;;;;5050048;28;20474;-77
2023/03/19 04:39:43;;;;;;;3.70;2.40;;;11.50;99.90;;;;;;5067380;28;20180;-77
2023/03/19 04:42:10;;;;;;;3.67;2.63;;;11.50;99.90;;;;;;5070089;28;20276;-77
2023/03/19 04:44:36;;;;;;;3.50;2.50;;;11.40;99.90;;;;;;5069624;28;20255;-77
2023/03/19 04:47:03;;;;;;;3.50;2.70;;;11.40;99.90;;;;;;5068519;28;20431;-77
2023/03/19 04:49:30;;;;;;;2.80;2.50;;;11.40;99.90;;;;;;5069506;28;20400;-77
2023/03/19 04:51:56;;;;;;;5.03;2.97;;;11.40;99.90;;;;;;5070065;28;20415;-77
2023/03/19 04:54:23;;;;;;;2.53;2.30;;;11.50;99.90;;;;;;5069489;28;20435;-77
2023/03/19 04:56:49;;;;;;;4.10;2.90;;;11.50;99.90;;;;;;5068271;28;20419;-77
2023/03/19 04:59:15;;;;;;;4.13;2.50;;;11.50;99.90;;;;;;5069907;28;20403;-76
2023/03/19 05:01:40;;;;;;;3.80;2.23;;;11.50;99.90;;;;;;5051811;28;20462;-77
2023/03/19 05:04:07;;;;;;;4.77;2.97;;;11.60;99.90;;;;;;5070173;28;20197;-78
2023/03/19 05:06:32;;;;;;;3.67;2.63;;;11.60;99.90;;;;;;5071535;28;20173;-77
2023/03/19 05:08:58;;;;;;;3.60;2.80;;;11.60;99.90;;;;;;5072301;28;20775;-77
2023/03/19 05:11:24;;;;;;;4.43;2.43;;;11.60;99.90;;;;;;5072772;28;20556;-77
2023/03/19 05:13:49;;;;;;;3.30;2.37;;;11.60;99.90;;;;;;5070345;28;20300;-77
2023/03/19 05:16:15;;;;;;;5.40;3.60;;;11.60;99.90;;;;;;5062854;28;20251;-77
2023/03/19 05:18:42;;;;;;;3.07;2.70;;;11.60;99.90;;;;;;5049399;28;20193;-77
2023/03/19 05:21:11;;;;;;;6.33;2.60;;;11.60;99.90;;;;;;5049269;28;20282;-77
2023/03/19 05:23:37;;;;;;;3.60;2.73;;;11.60;99.90;;;;;;5049033;28;20444;-77
2023/03/19 05:26:03;;;;;;;2.30;2.07;;;11.70;99.90;;;;;;5048196;28;20776;-77
2023/03/19 05:28:28;;;;;;;4.83;2.57;;;11.70;99.90;;;;;;5047687;28;20424;-77
2023/03/19 05:30:55;;;;;;;2.53;2.03;;;11.70;99.90;;;;;;5047765;28;20276;-77
2023/03/19 05:33:22;;;;;;;4.13;2.47;;;11.60;99.90;;;;;;5046582;28;20216;-77
2023/03/19 05:35:47;;;;;;;3.30;2.50;;;11.70;99.90;;;;;;5049306;28;20941;-77
2023/03/19 05:38:13;;;;;;;5.90;2.60;;;11.70;99.90;;;;;;5048684;28;20435;-77
2023/03/19 05:40:41;;;;;;;3.50;2.67;;;11.70;99.90;;;;;;5048160;28;20300;-77
2023/03/19 05:43:08;;;;;;;2.67;2.23;;;11.70;99.90;;;;;;5048181;28;20206;-77
2023/03/19 05:45:34;;;;;;;3.00;2.23;;;11.70;99.90;;;;;;5049045;28;20443;-77
2023/03/19 05:48:02;;;;;;;2.73;2.40;;;11.70;99.90;;;;;;5048736;28;20971;-77
2023/03/19 05:50:28;;;;;;;4.30;2.97;;;11.70;99.90;;;;;;5030910;28;20427;-77
2023/03/19 05:52:53;;;;;;;3.30;2.60;;;11.70;99.90;;;;;;5048625;28;20444;-77
2023/03/19 05:55:19;;;;;;;2.83;2.63;;;11.70;99.90;;;;;;5047438;28;20499;-77
2023/03/19 05:57:45;;;;;;;4.60;2.70;;;11.80;99.90;;;;;;5045992;28;20182;-77
2023/03/19 06:00:12;;;;;;;4.80;2.30;;;11.80;99.90;;;;;;5048279;28;20213;-77
2023/03/19 06:02:38;;;;;;;3.10;2.33;;;11.70;99.90;;;;;;5048573;28;20404;-77
2023/03/19 06:05:05;;;;;;;3.27;2.40;;;11.80;99.90;;;;;;5048433;28;20424;-77
2023/03/19 06:07:31;;;;;;;3.43;3.10;;;11.80;99.90;;;;;;5048366;28;20429;-77
2023/03/19 06:09:57;;;;;;;3.57;2.63;;;11.80;99.90;;;;;;5047595;28;20432;-77
2023/03/19 06:12:23;;;;;;;3.37;2.70;;;11.80;99.90;;;;;;5047424;28;20201;-77
2023/03/19 06:14:49;;;;;;;3.53;3.10;;;11.80;99.90;;;;;;5048154;28;20441;-77
2023/03/19 06:17:15;;;;;;;3.23;2.70;;;11.80;99.90;;;;;;5048455;28;20785;-77
2023/03/19 06:19:41;;;;;;;3.67;3.07;;;11.90;99.90;;;;;;5048309;28;21031;-77
2023/03/19 06:22:07;;;;;;;5.10;3.00;;;11.80;99.90;;;;;;5029401;28;20503;-77
2023/03/19 06:24:33;;;;;;;3.03;2.73;;;11.90;99.90;;;;;;5047053;28;20854;-76
2023/03/19 06:27:00;;;;;;;3.10;2.63;;;11.90;99.90;;;;;;5048548;28;20597;-76
2023/03/19 06:29:26;;;;;;;3.63;2.60;;;11.90;99.90;;;;;;5048727;28;20181;-77
2023/03/19 06:31:52;;;;;;;3.00;2.70;;;11.90;99.90;;;;;;5048808;28;20896;-77
2023/03/19 06:34:17;;;;;;;4.63;3.27;;;11.80;99.90;;;;;;5048391;28;20428;-76
2023/03/19 06:36:43;;;;;;;3.53;3.20;;;11.90;99.90;;;;;;5048812;28;21073;-76
2023/03/19 06:39:09;;;;;;;3.83;3.00;;;11.90;99.90;;;;;;5047411;28;20211;-76
2023/03/19 06:41:36;;;;;;;3.27;2.97;;;11.80;99.90;;;;;;5050545;28;20251;-75
2023/03/19 06:44:02;;;;;;;4.33;2.87;;;11.80;99.90;;;;;;5049874;28;20530;-77
2023/03/19 06:46:28;;;;;;;3.27;2.70;;;11.80;99.90;;;;;;5053053;28;20482;-77
2023/03/19 06:48:54;;;;;;;3.27;2.77;;;11.80;99.90;;;;;;5053313;28;20408;-76
2023/03/19 06:51:20;;;;;;;5.50;2.57;;;11.80;99.90;;;;;;5054263;28;20289;-77
2023/03/19 06:53:45;;;;;;;4.30;3.20;;;11.90;99.90;;;;;;5054032;28;20201;-76
2023/03/19 06:56:11;;;;;;;5.60;3.00;;;11.80;99.90;;;;;;5053493;28;20420;-77
2023/03/19 06:58:37;;;;;;;5.10;2.93;;;11.90;99.90;;;;;;5052381;28;20489;-77
2023/03/19 07:01:03;;;;;;;4.67;3.13;;;11.80;99.90;;;;;;5050504;28;20745;-77
2023/03/19 07:03:30;;;;;;;4.43;3.07;;;11.80;99.90;;;;;;5051817;28;20189;-76
2023/03/19 07:05:55;;;;;;;4.43;2.80;;;11.90;99.90;;;;;;5050926;28;21093;-77
2023/03/19 07:08:21;;;;;;;7.40;3.53;;;11.90;99.90;;;;;;5051974;28;20412;-77
2023/03/19 07:10:47;;;;;;;3.23;2.87;;;11.90;99.90;;;;;;5052168;28;20190;-77
2023/03/19 07:13:13;;;;;;;4.87;3.40;;;11.90;99.90;;;;;;5051725;28;20244;-76
2023/03/19 07:15:39;;;;;;;3.20;2.90;;;11.90;99.90;;;;;;5051980;28;20181;-77
2023/03/19 07:18:05;;;;;;;4.00;2.73;;;11.90;99.90;;;;;;5051493;28;21018;-77
2023/03/19 07:20:30;;;;;;;4.37;3.40;;;11.90;99.90;;;;;;5033789;28;20460;-77
2023/03/19 07:22:56;;;;;;;3.00;2.70;;;12.00;99.90;;;;;;5051093;28;20671;-77
2023/03/19 07:25:22;;;;;;;5.60;3.03;;;12.00;99.90;;;;;;5050850;28;20185;-77
2023/03/19 07:27:48;;;;;;;3.80;3.50;;;12.00;99.90;;;;;;5051776;28;20178;-77
2023/03/19 07:30:14;;;;;;;3.93;2.73;;;12.00;99.90;;;;;;5050732;28;20173;-76
2023/03/19 07:32:41;;;;;;;4.70;3.40;;;12.10;99.90;;;;;;5052309;28;20730;-75
2023/03/19 07:35:08;;;;;;;6.53;3.07;;;12.10;99.90;;;;;;5052110;28;20420;-77
2023/03/19 07:37:34;;;;;;;2.60;2.40;;;12.10;99.90;;;;;;5051929;28;20993;-77
2023/03/19 07:40:00;;;;;;;3.10;2.90;;;12.10;99.90;;;;;;5035241;28;20804;-78
2023/03/19 07:42:26;;;;;;;4.23;3.13;;;12.10;99.90;;;;;;5052780;28;20424;-77
2023/03/19 07:44:51;;;;;;;3.50;3.10;;;12.10;99.90;;;;;;5052577;28;20476;-77
2023/03/19 07:47:17;;;;;;;3.23;2.77;;;12.10;99.90;;;;;;5053217;28;20201;-78
2023/03/19 07:49:43;;;;;;;3.90;3.17;;;12.10;99.90;;;;;;5052951;28;20581;-78
2023/03/19 07:52:09;;;;;;;4.00;2.90;;;12.10;99.90;;;;;;5053114;28;20170;-78
2023/03/19 07:54:35;;;;;;;6.33;3.83;;;12.10;99.90;;;;;;5052782;28;20239;-78
2023/03/19 07:57:01;;;;;;;4.20;3.33;;;12.10;99.90;;;;;;5052311;28;20412;-77
2023/03/19 07:59:26;;;;;;;3.53;3.27;;;12.10;99.90;;;;;;5050210;28;20182;-78
2023/03/19 08:01:52;;;;;;;3.60;3.30;;;12.10;99.90;;;;;;5050973;28;20209;-76
2023/03/19 08:04:18;;;;;;;4.20;3.70;;;12.10;99.90;;;;;;5052020;28;20296;-78
2023/03/19 08:06:43;;;;;;;5.63;3.70;;;12.10;99.90;;;;;;5052581;28;20196;-78
2023/03/19 08:09:09;;;;;;;4.47;3.13;;;12.10;99.90;;;;;;5051588;28;20181;-77
2023/03/19 08:11:35;;;;;;;3.93;3.23;;;12.20;99.90;;;;;;5051610;28;20174;-77
2023/03/19 08:14:01;;;;;;;4.97;3.30;;;12.20;99.90;;;;;;5051212;28;20270;-78
2023/03/19 08:16:27;;;;;;;4.00;3.40;;;12.30;99.90;;;;;;5051690;28;20424;-77
2023/03/19 08:18:53;;;;;;;5.30;3.97;;;12.30;99.90;;;;;;5049915;28;20189;-75
2023/03/19 08:21:18;;;;;;;5.23;4.17;;;12.30;99.90;;;;;;5049543;28;20459;-76
2023/03/19 08:23:44;;;;;;;4.60;3.90;;;12.30;99.90;;;;;;5049671;28;20277;-77
2023/03/19 08:26:10;;;;;;;3.80;3.40;;;12.30;99.90;;;;;;5051274;28;20223;-76
2023/03/19 08:28:37;;;;;;;5.80;3.50;;;12.30;99.90;;;;;;5051017;28;20240;-77
2023/03/19 08:31:10;;;;;;;4.03;3.63;;;12.30;99.90;;;;;;5051211;28;20416;-77
2023/03/19 08:33:36;;;;;;;4.10;3.70;;;12.20;99.90;;;;;;5050907;28;20433;-77
2023/03/19 08:36:10;;;;;;;3.57;3.20;;;12.30;99.90;;;;;;5051199;28;20427;-77
2023/03/19 08:38:36;;;;;;;4.10;3.70;;;12.30;99.90;;;;;;5048360;28;20442;-76
2023/03/19 08:41:03;;;;;;;4.43;3.17;;;12.30;99.90;;;;;;5049535;28;20456;-77
2023/03/19 08:43:33;;;;;;;3.57;3.27;;;12.30;99.90;;;;;;5048814;28;20490;-77
2023/03/19 08:45:59;;;;;;;3.50;3.20;;;12.30;99.90;;;;;;5050570;28;20491;-77
2023/03/19 08:48:25;;;;;;;3.83;3.17;;;12.30;99.90;;;;;;5045584;28;20411;-77
2023/03/19 08:50:56;;;;;;;4.43;3.67;;;12.30;99.90;;;;;;5049225;28;20454;-77
2023/03/19 08:53:22;;;;;;;3.10;2.90;;;12.30;99.90;;;;;;5049299;28;20439;-77
2023/03/19 08:55:53;;;;;;;4.30;3.30;;;12.30;99.90;;;;;;5049657;28;20404;-77
2023/03/19 08:58:19;;;;;;;5.70;3.50;;;12.30;99.90;;;;;;5049430;28;20436;-77
2023/03/19 09:00:46;;;;;;;4.40;3.43;;;12.30;99.90;;;;;;5049917;28;20488;-77
2023/03/19 09:03:12;;;;;;;4.20;3.60;;;12.30;99.90;;;;;;5051109;28;20436;-77
2023/03/19 09:05:37;;;;;;;3.53;3.23;;;12.30;99.90;;;;;;5050358;28;20477;-77
2023/03/19 09:08:03;;;;;;;5.90;3.57;;;12.30;99.90;;;;;;5050696;28;20499;-77
2023/03/19 09:10:29;;;;;;;3.40;3.10;;;12.30;99.90;;;;;;5051413;28;20178;-77
2023/03/19 09:12:54;;;;;;;3.57;3.23;;;12.30;99.90;;;;;;5051171;28;20272;-76
2023/03/19 09:15:20;;;;;;;5.13;3.30;;;12.30;99.90;;;;;;5047889;28;20189;-77
2023/03/19 09:17:46;;;;;;;3.83;3.00;;;12.30;99.90;;;;;;5044805;28;20658;-77
2023/03/19 09:20:11;;;;;;;6.80;3.50;;;12.30;99.90;;;;;;5048151;28;20213;-76
2023/03/19 09:22:38;;;;;;;3.63;3.03;;;12.30;99.90;;;;;;5041120;28;20543;-77
2023/03/19 09:25:04;;;;;;;3.20;2.70;;;12.40;99.90;;;;;;5039295;28;20420;-77
2023/03/19 09:27:29;;;;;;;4.57;3.10;;;12.40;99.90;;;;;;5049215;28;20412;-76
2023/03/19 09:29:55;;;;;;;5.37;3.10;;;12.40;99.90;;;;;;5047920;28;20409;-77
2023/03/19 09:32:21;;;;;;;3.67;3.00;;;12.50;99.90;;;;;;5047802;28;20174;-77
2023/03/19 09:34:46;;;;;;;4.17;3.60;;;12.50;99.90;;;;;;5030480;28;20233;-76
2023/03/19 09:37:12;;;;;;;5.47;3.43;;;12.50;99.90;;;;;;5046905;28;20613;-75
2023/03/19 09:39:38;;;;;;;3.80;3.40;;;12.50;99.90;;;;;;5063306;28;20208;-76
2023/03/19 09:42:09;;;;;;;4.57;3.63;;;12.60;99.90;;;;;;5068422;28;20262;-76
2023/03/19 09:44:38;;;;;;;4.20;3.80;;;12.60;99.90;;;;;;5048966;28;20201;-76
2023/03/19 09:47:22;;;;;;;3.77;3.40;;;12.60;99.90;;;;;;5039979;28;20998;-76
2023/03/19 09:49:49;;;;;;;3.40;3.10;;;12.60;99.90;;;;;;5038938;28;20542;-76
2023/03/19 09:52:27;;;;;;;4.03;3.53;;;12.60;99.90;;;;;;5050430;28;20970;-77
2023/03/19 09:54:57;;;;;;;3.97;3.63;;;12.60;99.90;;;;;;5047151;28;20514;-77
2023/03/19 09:57:23;;;;;;;3.57;3.23;;;12.60;99.90;;;;;;5049703;28;20950;-77
2023/03/19 09:59:51;;;;;;;6.10;3.87;;;12.70;99.90;;;;;;5047049;28;20517;-77
2023/03/19 10:02:35;;;;;;;3.93;3.60;;;12.80;99.90;;;;;;5044809;28;20618;-76
2023/03/19 10:05:13;;;;;;;4.50;4.10;;;12.80;99.90;;;;;;5046356;28;20804;-77
2023/03/19 10:08:16;;;;;;;5.00;4.60;;;12.80;99.90;;;;;;5054515;28;20472;-76
2023/03/19 10:11:03;;;;;;;4.67;4.17;;;12.80;99.90;;;;;;5050540;28;20761;-77
2023/03/19 10:13:41;;;;;;;4.20;3.90;;;12.80;99.90;;;;;;5053881;28;20511;-77
2023/03/19 10:16:15;;;;;;;5.13;4.63;;;12.90;99.90;;;;;;5052075;28;20443;-77
2023/03/19 10:18:46;;;;;;;4.93;4.43;;;12.90;99.90;;;;;;5056522;28;20475;-76
2023/03/19 10:21:18;;;;;;;4.50;4.10;;;12.90;99.90;;;;;;5052094;28;20789;-77
2023/03/19 10:24:03;;;;;;;4.70;4.20;;;13.00;99.90;;;;;;5048993;28;20808;-77
2023/03/19 10:26:34;;;;;;;5.10;3.70;;;12.90;99.90;;;;;;5058141;28;20996;-77
2023/03/19 10:29:13;;;;;;;5.70;4.03;;;13.00;99.90;;;;;;5051177;28;20965;-77
2023/03/19 10:31:51;;;;;;;4.60;4.20;;;13.10;99.90;;;;;;5056245;28;20435;-77
2023/03/19 10:34:33;;;;;;;4.53;4.17;;;13.10;99.90;;;;;;5048338;28;21031;-76
2023/03/19 10:37:14;;;;;;;4.73;4.30;;;13.20;99.90;;;;;;5051601;28;20592;-77
2023/03/19 10:39:42;;;;;;;5.37;4.87;;;13.20;99.90;;;;;;5056904;28;20562;-76
2023/03/19 10:42:40;;;;;;;4.43;4.13;;;13.30;99.90;;;;;;5046779;28;20996;-77
2023/03/19 10:45:24;;;;;;;4.53;4.13;;;13.30;99.90;;;;;;5052803;28;20452;-77
2023/03/19 10:47:51;;;;;;;3.70;3.40;;;13.40;99.90;;;;;;5056331;28;20436;-76
2023/03/19 10:50:19;;;;;;;4.70;4.30;;;13.40;99.90;;;;;;5046615;28;20840;-77
2023/03/19 10:52:50;;;;;;;5.40;5.00;;;13.40;99.90;;;;;;5050792;28;20932;-77
2023/03/19 10:55:28;;;;;;;4.83;4.40;;;13.40;99.90;;;;;;5051018;28;20484;-77
2023/03/19 10:58:02;;;;;;;5.40;5.00;;;13.50;99.90;;;;;;5056804;28;21132;-77
2023/03/19 11:00:32;;;;;;;6.80;6.20;;;13.50;99.90;;;;;;5070724;28;20466;-77
2023/03/19 11:02:58;;;;;;;7.17;6.67;;;13.50;99.90;;;;;;5054437;28;20428;-76
2023/03/19 11:05:26;;;;;;;7.17;6.57;;;13.50;99.90;;;;;;5054575;28;20438;-77
2023/03/19 11:08:05;;;;;;;6.73;6.23;;;13.60;99.90;;;;;;5052248;28;20436;-77
2023/03/19 11:10:34;;;;;;;6.77;6.07;;;13.60;99.90;;;;;;5056115;28;20434;-76
2023/03/19 11:13:20;;;;;;;7.23;6.70;;;13.60;99.90;;;;;;5050992;28;21515;-77
2023/03/19 11:15:47;;;;;;;7.13;6.53;;;13.70;99.90;;;;;;5053744;28;20436;-77
2023/03/19 11:18:20;;;;;;;7.77;7.07;;;13.80;99.90;;;;;;5071106;28;20482;-76
2023/03/19 11:21:01;;;;;;;6.90;6.40;;;14.00;99.90;;;;;;5056576;28;20529;-77
2023/03/19 11:23:36;;;;;;;7.43;6.83;;;14.20;99.90;;;;;;5053667;28;20482;-77
2023/03/19 11:26:02;;;;;;;7.93;7.30;;;14.30;99.90;;;;;;5051074;28;21296;-77
2023/03/19 11:28:32;;;;;;;8.37;7.67;;;14.40;99.90;;;;;;5050880;28;20455;-76
2023/03/19 11:31:20;;;;;;;9.00;8.30;;;14.50;99.90;;;;;;5048336;28;20999;-77
2023/03/19 11:33:54;;;;;;;8.67;7.97;;;14.50;99.90;;;;;;5049189;28;20509;-77
2023/03/19 11:36:33;;;;;;;9.07;8.13;;;14.50;99.90;;;;;;5051292;28;20931;-76
2023/03/19 11:39:29;;;;;;;9.20;8.30;;;14.60;99.90;;;;;;5033189;28;20459;-77
2023/03/19 11:42:10;;;;;;;9.20;8.40;;;14.60;99.90;;;;;;5053430;28;20474;-77
2023/03/19 11:44:48;;;;;;;9.67;8.87;;;14.50;99.90;;;;;;5048922;28;20450;-77
2023/03/19 11:48:01;;;;;;;10.70;8.40;;;14.50;99.90;;;;;;5060607;28;20436;-77
2023/03/19 11:50:53;;;;;;;9.97;9.17;;;14.50;99.90;;;;;;5026461;28;20456;-76
2023/03/19 11:53:28;;;;;;;9.37;8.67;;;14.40;99.90;;;;;;5044480;28;20514;-75
2023/03/19 11:56:18;;;;;;;9.50;8.70;;;14.30;99.90;;;;;;5048266;28;20494;-76
2023/03/19 11:59:05;;;;;;;5.30;4.90;;;14.30;99.90;;;;;;5046044;28;20554;-77
2023/03/19 12:01:38;;;;;;;3.83;3.00;;;14.20;99.90;;;;;;5044010;28;20471;-76
2023/03/19 12:04:24;;;;;;;2.90;2.60;;;14.10;99.90;;;;;;5048019;28;20478;-77
2023/03/19 12:06:59;;;;;;;2.50;1.87;;;14.00;99.90;;;;;;5036015;28;20444;-77
2023/03/19 12:09:45;;;;;;;2.07;1.87;;;14.00;99.90;;;;;;5038156;28;20831;-77
2023/03/19 12:12:40;;;;;;;2.70;1.30;;;13.90;99.90;;;;;;5052938;28;20459;-77
2023/03/19 12:15:36;;;;;;;1.80;1.40;;;13.80;99.90;;;;;;5049033;28;21120;-76
2023/03/19 12:18:20;;;;;;;1.70;1.60;;;13.90;99.90;;;;;;5050020;28;20791;-77
2023/03/19 12:21:03;;;;;;;2.40;2.03;;;13.80;99.90;;;;;;5047777;28;22238;-76
2023/03/19 12:24:10;;;;;;;2.07;1.87;;;13.90;99.90;;;;;;5055066;28;20490;-76
2023/03/19 12:27:00;;;;;;;2.20;2.00;;;13.90;99.90;;;;;;5052834;28;20432;-76
2023/03/19 12:29:34;;;;;;;2.50;2.30;;;14.00;99.90;;;;;;5053142;28;20514;-75
2023/03/19 12:32:12;;;;;;;3.00;2.70;;;14.10;99.90;;;;;;5055653;28;20444;-76
2023/03/19 12:34:57;;;;;;;3.20;2.90;;;14.20;99.90;;;;;;5045552;28;20495;-77
2023/03/19 12:37:31;;;;;;;3.10;2.80;;;14.20;99.90;;;;;;5051382;28;20444;-76
2023/03/19 12:40:20;;;;;;;3.67;3.20;;;14.30;99.90;;;;;;5052854;28;20523;-76
2023/03/19 12:42:46;;;;;;;4.73;4.33;;;14.40;99.90;;;;;;5044610;28;20432;-76
2023/03/19 12:45:25;;;;;;;5.13;4.73;;;14.40;99.90;;;;;;5051982;28;20489;-76
2023/03/19 12:47:57;;;;;;;5.03;4.53;;;14.40;99.90;;;;;;5046732;28;20193;-76
2023/03/19 12:50:25;;;;;;;5.67;4.40;;;14.50;99.90;;;;;;5043537;28;20459;-76
2023/03/19 12:52:54;;;;;;;5.93;5.40;;;14.50;99.90;;;;;;5050196;28;20443;-76
2023/03/19 12:55:43;;;;;;;5.20;4.80;;;14.50;99.90;;;;;;5045660;28;20444;-75
2023/03/19 12:58:30;;;;;;;5.10;4.67;;;14.50;99.90;;;;;;5049447;28;20460;-76
2023/03/19 13:00:58;;;;;;;5.70;5.20;;;14.50;99.90;;;;;;5048893;28;20476;-77